Tobago, Trinidad and Tobago
Current Conditions -  °F | °C
As of 4:00 PM on Saturday 25 Oct 2014 (Local Time) from TTCP Reporting Station
Few Clouds Few Clouds  
Wind Chill: 30°   Ceiling: Unl
Heat Index: 34°   Visibility: 6mi
Dew Point: 23°   Wind: 14mph
Humidity: 66%   Direction: 100°E
Pressure: 29.83"   Gusts: NA
Location:  11.22°N, 60.67°W
Report Text: TTCP 252000Z 10012KT 9999 FEW025 30/23 Q1010 NOSIG
Loading
Personal Weather Stations






























Interactive Weather Map
Tropical Storm Tracking
New forecast layout! Learn more

10-Day Weather Forecast

Advertisements
Track Severe Weather on mobile